This is the latest recevied weather packets stored in our database for station/object K5JLG-10. If no packets are shown the sender has not sent any weather packets the latest 10 day(s).
| Time | Temp. | Humidity | Pressure | Rain* | Wind** | Luminosity | Snow |
|---|---|---|---|---|---|---|---|
| 1777935437 | 27.78° C | 62% | 1006.2 hPa | 0 mm | - | - | - |
| 1777934236 | 28.33° C | 61% | 1006.3 hPa | 0 mm | - | - | - |
| 1777931836 | 27.78° C | 62% | 1006.6 hPa | 0 mm | - | - | - |
| 1777931237 | 27.78° C | 61% | 1006.8 hPa | 0 mm | - | - | - |
| 1777926436 | 27.78° C | 60% | 1008.1 hPa | 0 mm | - | - | - |
| 1777924656 | 27.22° C | 60% | 1008.9 hPa | 0 mm | - | - | - |
| 1777921636 | 27.22° C | 59% | 1009.7 hPa | 0 mm | - | - | - |
| 1777918036 | 26.67° C | 58% | 1010.7 hPa | 0 mm | - | - | - |
| 1777916837 | 26.11° C | 60% | 1010.8 hPa | 0 mm | - | - | - |
| 1777916236 | 25.56° C | 60% | 1011 hPa | 0 mm | - | - | - |
| 1777915656 | 25° C | 60% | 1011.1 hPa | 0 mm | - | - | - |
| 1777908435 | 22.22° C | 66% | 1012.6 hPa | 0 mm | - | - | - |
| 1777899915 | 17.78° C | 77% | 1013.2 hPa | 0 mm | - | - | - |
| 1777893317 | 17.78° C | 74% | 1012.8 hPa | 0 mm | - | - | - |
| 1777889717 | 17.78° C | 73% | 1013.2 hPa | 0 mm | - | - | - |
| 1777887317 | 18.33° C | 71% | 1013.2 hPa | 0 mm | - | - | - |
| 1777884317 | 18.89° C | 67% | 1013.5 hPa | 0 mm | - | - | - |
| 1777880717 | 19.44° C | 60% | 1014 hPa | 0 mm | - | - | - |
| 1777875917 | 20.56° C | 60% | 1014.8 hPa | 0 mm | - | - | - |
| 1777873516 | 20.56° C | 59% | 1015.2 hPa | 0 mm | - | - | - |
| 1777871717 | 20.56° C | 58% | 1015.5 hPa | 0 mm | - | - | - |
| 1777869916 | 21.11° C | 55% | 1015.7 hPa | 0 mm | - | - | - |
| 1777868737 | 21.67° C | 54% | 1015.9 hPa | 0 mm | - | - | - |
| 1777868117 | 21.67° C | 53% | 1015.9 hPa | 0 mm | - | - | - |
| 1777862717 | 22.78° C | 50% | 1015.5 hPa | 0 mm | - | - | - |
* Rain latest hour (hover to see other rain measurements)
** Current wind speed in m/s (hover to see current wind gust speed)